Time;durP1;ratioP1;P1;durP2;ratioP2;P2;SDS_P1;SDS_P2;PMS_P1;PMS_P2;Temp;Humidity;BMP_temperature;BMP_pressure;BME280_temperature;BME280_humidity;BME280_pressure;Samples;Min_cycle;Max_cycle;Signal;HPM_P1;HPM_P2
2022/10/11 00:00:16;;;;;;;16.67;8.57;;;11.20;99.90;;;;;;5058946;28;20025;-69
2022/10/11 00:02:42;;;;;;;29.48;10.15;;;11.10;99.90;;;;;;5044451;28;20033;-67
2022/10/11 00:05:08;;;;;;;23.00;8.73;;;11.10;99.90;;;;;;5046640;28;20047;-68
2022/10/11 00:07:36;;;;;;;17.42;8.15;;;11.10;99.90;;;;;;5044946;28;20059;-68
2022/10/11 00:10:02;;;;;;;16.25;8.30;;;11.10;99.90;;;;;;5043700;28;20107;-68
2022/10/11 00:12:27;;;;;;;25.95;8.73;;;11.10;99.90;;;;;;5043844;28;20024;-67
2022/10/11 00:14:53;;;;;;;21.40;9.63;;;11.00;99.90;;;;;;5048076;28;20029;-67
2022/10/11 00:17:18;;;;;;;21.70;9.35;;;10.90;99.90;;;;;;5043448;28;20021;-67
2022/10/11 00:19:44;;;;;;;13.77;9.32;;;10.90;99.90;;;;;;5041695;28;20036;-68
2022/10/11 00:22:10;;;;;;;19.73;9.80;;;10.80;99.90;;;;;;5040402;28;20036;-69
2022/10/11 00:24:35;;;;;;;17.70;9.77;;;10.70;99.90;;;;;;5034568;28;20036;-68
2022/10/11 00:27:01;;;;;;;20.92;10.00;;;10.70;99.90;;;;;;5037885;28;20021;-68
2022/10/11 00:29:26;;;;;;;17.75;9.63;;;10.80;99.90;;;;;;5036153;28;20029;-68
2022/10/11 00:31:52;;;;;;;17.63;9.32;;;10.70;99.90;;;;;;5038447;28;20035;-68
2022/10/11 00:34:17;;;;;;;16.17;8.90;;;10.80;99.90;;;;;;5042212;28;20036;-69
2022/10/11 00:36:44;;;;;;;17.38;8.75;;;10.70;99.90;;;;;;5041846;28;20615;-68
2022/10/11 00:39:10;;;;;;;18.48;9.48;;;10.70;99.90;;;;;;5036764;28;20037;-68
2022/10/11 00:41:36;;;;;;;19.27;8.85;;;10.70;99.90;;;;;;5042407;28;20040;-68
2022/10/11 00:44:23;;;;;;;17.25;7.80;;;10.70;99.90;;;;;;5037813;28;20029;-68
2022/10/11 00:46:56;;;;;;;17.55;8.80;;;10.70;99.90;;;;;;5037963;28;20035;-69
2022/10/11 00:49:56;;;;;;;15.77;8.48;;;10.70;99.90;;;;;;5036215;28;20028;-68
2022/10/11 00:52:27;;;;;;;15.80;8.32;;;10.70;99.90;;;;;;5037751;28;20094;-68
2022/10/11 00:54:55;;;;;;;17.33;9.05;;;10.70;99.90;;;;;;5039757;28;20013;-68
2022/10/11 00:57:23;;;;;;;21.75;8.52;;;10.60;99.90;;;;;;5041638;28;20037;-67
2022/10/11 00:59:52;;;;;;;19.08;8.73;;;10.60;99.90;;;;;;5040936;28;20461;-68
2022/10/11 01:02:19;;;;;;;17.98;8.35;;;10.60;99.90;;;;;;5035203;28;20032;-68
2022/10/11 01:04:44;;;;;;;13.95;7.32;;;10.60;99.90;;;;;;5042353;28;20614;-69
2022/10/11 01:07:11;;;;;;;15.25;8.07;;;10.60;99.90;;;;;;5042234;28;20025;-68
2022/10/11 01:09:36;;;;;;;15.70;8.48;;;10.50;99.90;;;;;;5036149;28;20110;-67
2022/10/11 01:12:06;;;;;;;15.55;7.80;;;10.60;99.90;;;;;;5043737;28;20037;-68
2022/10/11 01:15:04;;;;;;;16.60;7.53;;;10.50;99.90;;;;;;5040833;28;20067;-68
2022/10/11 01:17:32;;;;;;;24.25;8.10;;;10.50;99.90;;;;;;5039733;28;20068;-68
2022/10/11 01:20:16;;;;;;;19.55;8.80;;;10.50;99.90;;;;;;5033525;28;20018;-68
2022/10/11 01:23:14;;;;;;;17.95;7.70;;;10.50;99.90;;;;;;5041992;28;20036;-68
2022/10/11 01:26:13;;;;;;;17.67;7.72;;;10.40;99.90;;;;;;5039150;28;20142;-69
2022/10/11 01:29:01;;;;;;;19.05;7.90;;;10.40;99.90;;;;;;5036660;28;20070;-68
2022/10/11 01:31:39;;;;;;;18.27;8.25;;;10.40;99.90;;;;;;5039701;28;20499;-68
2022/10/11 01:34:13;;;;;;;16.33;8.73;;;10.40;99.90;;;;;;5037949;28;20633;-69
2022/10/11 01:36:38;;;;;;;23.23;9.52;;;10.30;99.90;;;;;;5041232;28;20024;-68
2022/10/11 01:39:36;;;;;;;15.95;8.35;;;10.30;99.90;;;;;;5032506;28;20519;-68
2022/10/11 01:42:06;;;;;;;22.45;9.00;;;10.30;99.90;;;;;;5039992;28;20398;-67
2022/10/11 01:44:34;;;;;;;18.08;8.75;;;10.20;99.90;;;;;;5042750;28;20060;-69
2022/10/11 01:47:00;;;;;;;20.95;9.90;;;10.20;99.90;;;;;;5040687;28;20483;-67
2022/10/11 01:49:25;;;;;;;15.85;8.18;;;10.20;99.90;;;;;;5038357;28;20116;-68
2022/10/11 01:51:56;;;;;;;17.45;7.80;;;10.20;99.90;;;;;;5032730;28;20029;-68
2022/10/11 01:54:36;;;;;;;17.75;8.57;;;10.20;99.90;;;;;;5039220;28;20039;-68
2022/10/11 01:57:24;;;;;;;15.18;8.30;;;10.10;99.90;;;;;;5042101;28;20029;-68
2022/10/11 02:00:07;;;;;;;17.63;7.90;;;10.10;99.90;;;;;;5042921;28;20037;-69
2022/10/11 02:02:45;;;;;;;17.73;8.10;;;10.10;99.90;;;;;;5040507;28;20038;-68
2022/10/11 02:05:26;;;;;;;18.10;8.23;;;10.10;99.90;;;;;;5034903;28;20563;-68
2022/10/11 02:08:06;;;;;;;15.02;7.45;;;10.00;99.90;;;;;;5039519;28;20407;-68
2022/10/11 02:10:50;;;;;;;16.70;7.10;;;10.00;99.90;;;;;;5038285;28;20145;-67
2022/10/11 02:13:32;;;;;;;12.05;7.22;;;10.00;99.90;;;;;;5039806;28;20488;-68
2022/10/11 02:16:01;;;;;;;14.07;7.35;;;10.00;99.90;;;;;;5042192;28;20029;-68
2022/10/11 02:18:32;;;;;;;20.45;8.40;;;10.00;99.90;;;;;;5040188;28;20029;-68
2022/10/11 02:21:01;;;;;;;13.27;7.68;;;9.90;99.90;;;;;;5036365;28;20033;-68
2022/10/11 02:23:44;;;;;;;15.10;7.90;;;9.90;99.90;;;;;;5036701;28;20021;-68
2022/10/11 02:26:11;;;;;;;16.95;8.55;;;9.90;99.90;;;;;;5040040;28;20040;-68
2022/10/11 02:28:40;;;;;;;12.57;7.85;;;9.90;99.90;;;;;;5037420;28;20029;-70
2022/10/11 02:31:08;;;;;;;18.63;8.07;;;9.90;99.90;;;;;;5035276;28;20444;-68
2022/10/11 02:33:43;;;;;;;12.30;7.13;;;9.80;99.90;;;;;;5038983;28;20031;-68
2022/10/11 02:36:25;;;;;;;13.43;7.45;;;9.80;99.90;;;;;;5051405;28;20072;-68
2022/10/11 02:38:57;;;;;;;13.73;7.85;;;9.80;99.90;;;;;;5036123;28;20112;-68
2022/10/11 02:41:28;;;;;;;17.65;7.72;;;9.70;99.90;;;;;;5039661;28;20021;-68
2022/10/11 02:44:02;;;;;;;13.43;7.85;;;9.70;99.90;;;;;;5035674;28;20025;-68
2022/10/11 02:46:29;;;;;;;15.25;7.93;;;9.70;99.90;;;;;;5040093;28;20045;-68
2022/10/11 02:48:59;;;;;;;15.38;7.65;;;9.70;99.90;;;;;;5041572;28;20021;-68
2022/10/11 02:51:28;;;;;;;12.38;6.90;;;9.70;99.90;;;;;;5039739;28;20374;-68
2022/10/11 02:53:54;;;;;;;13.05;7.45;;;9.70;99.90;;;;;;5032884;28;20017;-68
2022/10/11 02:56:19;;;;;;;13.48;7.10;;;9.70;99.90;;;;;;5044505;28;20534;-69
2022/10/11 02:58:45;;;;;;;15.77;7.70;;;9.60;99.90;;;;;;5036128;28;20029;-68
2022/10/11 03:01:11;;;;;;;16.48;7.88;;;9.60;99.90;;;;;;5043515;28;20441;-68
2022/10/11 03:03:37;;;;;;;16.48;7.15;;;9.60;99.90;;;;;;5040664;28;20040;-68
2022/10/11 03:06:03;;;;;;;15.73;7.40;;;9.60;99.90;;;;;;5043686;28;20062;-68
2022/10/11 03:08:29;;;;;;;19.08;8.52;;;9.50;99.90;;;;;;5040714;28;20366;-68
2022/10/11 03:10:55;;;;;;;16.65;7.93;;;9.50;99.90;;;;;;5045432;28;20558;-68
2022/10/11 03:13:20;;;;;;;16.15;8.18;;;9.50;99.90;;;;;;5041346;28;20462;-68
2022/10/11 03:15:50;;;;;;;16.98;8.55;;;9.40;99.90;;;;;;5042663;28;20048;-68
2022/10/11 03:18:16;;;;;;;16.25;8.80;;;9.40;99.90;;;;;;5042136;28;20577;-68
2022/10/11 03:20:42;;;;;;;15.50;7.32;;;9.40;99.90;;;;;;5042278;28;20100;-67
2022/10/11 03:23:08;;;;;;;12.02;6.95;;;9.40;99.90;;;;;;5039419;28;20037;-67
2022/10/11 03:25:34;;;;;;;18.33;8.23;;;9.40;99.90;;;;;;5038570;28;20041;-68
2022/10/11 03:27:59;;;;;;;14.82;8.88;;;9.40;99.90;;;;;;5037835;28;20059;-68
2022/10/11 03:30:25;;;;;;;18.63;7.97;;;9.40;99.90;;;;;;5043460;28;20421;-68
2022/10/11 03:32:50;;;;;;;22.10;7.97;;;9.40;99.90;;;;;;5043249;28;20068;-68
2022/10/11 03:35:16;;;;;;;13.73;6.78;;;9.40;99.90;;;;;;5042668;28;20033;-68
2022/10/11 03:37:42;;;;;;;13.77;6.63;;;9.40;99.90;;;;;;5035676;28;20393;-68
2022/10/11 03:40:09;;;;;;;21.17;6.88;;;9.30;99.90;;;;;;5042872;28;20036;-70
2022/10/11 03:42:35;;;;;;;11.73;7.40;;;9.30;99.90;;;;;;5041746;28;20553;-69
2022/10/11 03:45:03;;;;;;;17.23;8.07;;;9.30;99.90;;;;;;5041925;28;20047;-68
2022/10/11 03:47:30;;;;;;;10.93;6.70;;;9.20;99.90;;;;;;5038549;28;20033;-68
2022/10/11 03:49:56;;;;;;;12.45;7.38;;;9.20;99.90;;;;;;5042182;28;20373;-68
2022/10/11 03:52:22;;;;;;;19.13;8.45;;;9.20;99.90;;;;;;5042284;28;20017;-67
2022/10/11 03:54:47;;;;;;;18.05;8.15;;;9.20;99.90;;;;;;5041556;28;20144;-68
2022/10/11 03:57:13;;;;;;;13.60;7.68;;;9.20;99.90;;;;;;5042818;28;20025;-68
2022/10/11 03:59:39;;;;;;;17.52;8.23;;;9.10;99.90;;;;;;5041170;28;20036;-68
2022/10/11 04:02:04;;;;;;;17.48;6.97;;;9.10;99.90;;;;;;5042149;28;20060;-67
2022/10/11 04:04:30;;;;;;;13.32;7.20;;;9.10;99.90;;;;;;5042091;28;20049;-68
2022/10/11 04:06:56;;;;;;;17.60;7.90;;;9.10;99.90;;;;;;5036726;28;20032;-67
2022/10/11 04:09:21;;;;;;;14.15;7.28;;;9.10;99.90;;;;;;5042352;28;20078;-68
2022/10/11 04:11:47;;;;;;;15.07;7.32;;;9.10;99.90;;;;;;5041019;28;20533;-69
2022/10/11 04:14:12;;;;;;;17.30;7.88;;;9.00;99.90;;;;;;5041482;28;20048;-67
2022/10/11 04:16:39;;;;;;;13.77;8.25;;;9.00;99.90;;;;;;5044093;28;20051;-68
2022/10/11 04:19:04;;;;;;;14.50;8.27;;;8.90;99.90;;;;;;5042243;28;20033;-68
2022/10/11 04:21:30;;;;;;;18.27;8.18;;;8.90;99.90;;;;;;5038807;28;20095;-70
2022/10/11 04:23:56;;;;;;;16.58;8.77;;;8.90;99.90;;;;;;5042617;28;20398;-68
2022/10/11 04:26:22;;;;;;;14.70;8.57;;;8.90;99.90;;;;;;5041676;28;20448;-68
2022/10/11 04:28:47;;;;;;;15.10;8.23;;;8.90;99.90;;;;;;5037821;28;20086;-67
2022/10/11 04:31:13;;;;;;;13.00;7.97;;;8.90;99.90;;;;;;5038420;28;20120;-68
2022/10/11 04:33:38;;;;;;;15.82;8.90;;;8.80;99.90;;;;;;5042454;28;20032;-68
2022/10/11 04:36:04;;;;;;;17.60;9.05;;;8.80;99.90;;;;;;5041489;28;20110;-68
2022/10/11 04:38:30;;;;;;;16.38;9.23;;;8.80;99.90;;;;;;5037441;28;20037;-68
2022/10/11 04:41:08;;;;;;;13.23;7.57;;;8.80;99.90;;;;;;5043024;28;20025;-68
2022/10/11 04:43:34;;;;;;;13.10;7.43;;;8.80;99.90;;;;;;5039903;28;20037;-69
2022/10/11 04:46:00;;;;;;;17.50;8.40;;;8.80;99.90;;;;;;5039114;28;20025;-67
2022/10/11 04:48:26;;;;;;;17.77;8.57;;;8.70;99.90;;;;;;5040439;28;20036;-68
2022/10/11 04:50:51;;;;;;;16.27;9.07;;;8.70;99.90;;;;;;5043023;28;20108;-68
2022/10/11 04:53:17;;;;;;;21.77;8.98;;;8.70;99.90;;;;;;5038163;28;20025;-70
2022/10/11 04:55:43;;;;;;;13.45;8.30;;;8.70;99.90;;;;;;5040295;28;20394;-67
2022/10/11 04:58:08;;;;;;;15.38;9.07;;;8.70;99.90;;;;;;5039289;28;20223;-68
2022/10/11 05:00:34;;;;;;;17.27;9.10;;;8.70;99.90;;;;;;5036011;28;20021;-68
2022/10/11 05:02:59;;;;;;;15.27;7.18;;;8.70;99.90;;;;;;5043990;28;20372;-68
2022/10/11 05:05:25;;;;;;;15.35;8.02;;;8.60;99.90;;;;;;5040192;28;20051;-68
2022/10/11 05:07:50;;;;;;;15.48;7.88;;;8.60;99.90;;;;;;5040742;28;20025;-68
2022/10/11 05:10:16;;;;;;;11.77;7.72;;;8.60;99.90;;;;;;5040686;28;20041;-67
2022/10/11 05:12:42;;;;;;;12.13;7.68;;;8.50;99.90;;;;;;5038195;28;20040;-68
2022/10/11 05:15:08;;;;;;;14.88;7.93;;;8.60;99.90;;;;;;5039080;28;20083;-70
2022/10/11 05:17:33;;;;;;;13.35;7.72;;;8.60;99.90;;;;;;5034473;28;20025;-68
2022/10/11 05:19:59;;;;;;;18.15;7.40;;;8.60;99.90;;;;;;5038788;28;20504;-68
2022/10/11 05:22:25;;;;;;;17.52;9.07;;;8.50;99.90;;;;;;5039552;28;20094;-68
2022/10/11 05:24:50;;;;;;;16.95;8.07;;;8.50;99.90;;;;;;5042539;28;20036;-68
2022/10/11 05:27:16;;;;;;;16.63;8.32;;;8.40;99.90;;;;;;5040316;28;20465;-68
2022/10/11 05:29:42;;;;;;;20.70;9.43;;;8.40;99.90;;;;;;5042186;28;20041;-68
2022/10/11 05:32:07;;;;;;;17.20;9.68;;;8.40;99.90;;;;;;5038215;28;20083;-68
2022/10/11 05:34:33;;;;;;;18.80;9.27;;;8.30;99.90;;;;;;5042742;28;20029;-68
2022/10/11 05:36:58;;;;;;;22.13;11.45;;;8.30;99.90;;;;;;5043357;28;20389;-68
2022/10/11 05:39:24;;;;;;;17.58;10.82;;;8.20;99.90;;;;;;5040693;28;20063;-68
2022/10/11 05:41:50;;;;;;;20.73;11.20;;;8.20;99.90;;;;;;5037561;28;20467;-69
2022/10/11 05:44:16;;;;;;;19.58;9.63;;;8.20;99.90;;;;;;5040752;28;20567;-69
2022/10/11 05:46:42;;;;;;;20.73;10.68;;;8.20;99.90;;;;;;5040377;28;20074;-68
2022/10/11 05:49:07;;;;;;;21.15;10.38;;;8.20;99.90;;;;;;5044026;28;20041;-68
2022/10/11 05:51:33;;;;;;;18.67;11.80;;;8.20;99.90;;;;;;5038866;28;20021;-69
2022/10/11 05:53:58;;;;;;;16.52;9.23;;;8.20;99.90;;;;;;5037353;28;20526;-68
2022/10/11 05:56:25;;;;;;;12.23;9.05;;;8.20;99.90;;;;;;5037203;28;20037;-69
2022/10/11 05:58:52;;;;;;;13.13;8.15;;;8.30;99.90;;;;;;5040770;28;20454;-68
2022/10/11 06:01:23;;;;;;;19.90;7.55;;;8.30;99.90;;;;;;5032141;28;20032;-68
2022/10/11 06:03:49;;;;;;;14.52;8.32;;;8.20;99.90;;;;;;5039379;28;20442;-68
2022/10/11 06:06:14;;;;;;;15.73;8.80;;;8.20;99.90;;;;;;5034104;28;20052;-68
2022/10/11 06:08:40;;;;;;;16.27;9.18;;;8.30;99.90;;;;;;5036474;28;20029;-67
2022/10/11 06:11:10;;;;;;;15.00;8.27;;;8.30;99.90;;;;;;5037752;28;20393;-67
2022/10/11 06:13:36;;;;;;;13.23;7.72;;;8.30;99.90;;;;;;5036150;28;20044;-68
2022/10/11 06:16:05;;;;;;;15.90;8.18;;;8.30;99.90;;;;;;5038347;28;20041;-68
2022/10/11 06:18:31;;;;;;;17.45;9.23;;;8.30;99.90;;;;;;5041102;28;20502;-68
2022/10/11 06:20:58;;;;;;;24.67;10.00;;;8.20;99.90;;;;;;5036317;28;20022;-68
2022/10/11 06:23:23;;;;;;;22.08;9.75;;;8.20;99.90;;;;;;5033918;28;20029;-68
2022/10/11 06:26:00;;;;;;;19.65;10.50;;;8.20;99.90;;;;;;5037217;28;20041;-68
2022/10/11 06:28:27;;;;;;;17.02;9.70;;;8.20;99.90;;;;;;5035518;28;20018;-68
2022/10/11 06:30:54;;;;;;;19.60;10.48;;;8.20;99.90;;;;;;5037481;28;20109;-68
2022/10/11 06:33:20;;;;;;;21.60;9.98;;;8.20;99.90;;;;;;5040545;28;20029;-69
2022/10/11 06:35:46;;;;;;;20.45;11.40;;;8.20;99.90;;;;;;5041607;28;20028;-68
2022/10/11 06:38:11;;;;;;;18.30;9.32;;;8.20;99.90;;;;;;5042321;28;20556;-68
2022/10/11 06:40:37;;;;;;;14.75;7.82;;;8.30;99.90;;;;;;5042754;28;20413;-68
2022/10/11 06:43:03;;;;;;;16.98;7.13;;;8.30;99.90;;;;;;5045370;28;20378;-68
2022/10/11 06:45:29;;;;;;;13.32;6.95;;;8.30;99.90;;;;;;5041865;28;20045;-68
2022/10/11 06:47:54;;;;;;;23.38;7.97;;;8.10;99.90;;;;;;5040152;28;20059;-68
2022/10/11 06:50:20;;;;;;;13.50;7.97;;;8.00;99.90;;;;;;5041015;28;20041;-68
2022/10/11 06:52:46;;;;;;;10.77;7.80;;;8.00;99.90;;;;;;5043148;28;20636;-68
2022/10/11 06:55:12;;;;;;;13.50;7.53;;;8.10;99.90;;;;;;5041620;28;20033;-68
2022/10/11 06:57:37;;;;;;;9.68;7.53;;;8.10;99.90;;;;;;5010669;28;20115;-68
2022/10/11 07:00:04;;;;;;;16.70;8.95;;;8.20;99.90;;;;;;5019086;28;20025;-68
2022/10/11 07:02:30;;;;;;;13.45;8.10;;;8.20;99.90;;;;;;5028330;28;20013;-68
2022/10/11 07:04:55;;;;;;;15.25;9.27;;;8.20;99.90;;;;;;5030280;28;20033;-68
2022/10/11 07:07:21;;;;;;;17.00;9.73;;;8.20;99.90;;;;;;5030551;28;20100;-68
2022/10/11 07:09:47;;;;;;;12.45;8.40;;;8.20;99.90;;;;;;5028956;28;21702;-68
2022/10/11 07:12:12;;;;;;;14.27;8.55;;;8.20;99.90;;;;;;5029691;28;20029;-69
2022/10/11 07:14:38;;;;;;;20.13;9.02;;;8.20;99.90;;;;;;5029332;28;20072;-68
2022/10/11 07:17:04;;;;;;;18.65;9.43;;;8.20;99.90;;;;;;5030288;28;20056;-69
2022/10/11 07:19:30;;;;;;;15.65;8.65;;;8.20;99.90;;;;;;5027137;28;20035;-69
2022/10/11 07:21:55;;;;;;;21.40;9.73;;;8.30;99.90;;;;;;5028497;28;20507;-69
2022/10/11 07:24:21;;;;;;;22.95;11.32;;;8.30;99.90;;;;;;5029077;28;20037;-69
2022/10/11 07:26:46;;;;;;;22.05;11.55;;;8.40;99.90;;;;;;5028687;28;20025;-69
2022/10/11 07:29:12;;;;;;;19.35;9.82;;;8.40;99.90;;;;;;5040398;28;20036;-68
2022/10/11 07:31:40;;;;;;;20.33;12.27;;;8.40;99.90;;;;;;5036502;28;20195;-68
2022/10/11 07:34:05;;;;;;;24.23;12.95;;;8.30;99.90;;;;;;5043404;28;20497;-68
2022/10/11 07:36:31;;;;;;;22.25;14.05;;;8.40;99.90;;;;;;5038199;28;20025;-68
2022/10/11 07:38:57;;;;;;;29.52;15.35;;;8.40;99.90;;;;;;5037539;28;20429;-69
2022/10/11 07:41:22;;;;;;;25.38;15.50;;;8.50;99.90;;;;;;5042984;28;20025;-69
2022/10/11 07:43:48;;;;;;;29.15;16.73;;;8.50;99.90;;;;;;5039997;28;20090;-69
2022/10/11 07:46:15;;;;;;;30.08;16.00;;;8.60;99.90;;;;;;5043577;28;20496;-68
2022/10/11 07:48:41;;;;;;;27.48;14.93;;;8.60;99.90;;;;;;5041096;28;20037;-68
2022/10/11 07:51:12;;;;;;;28.00;14.82;;;8.70;99.90;;;;;;5042787;28;20032;-69
2022/10/11 07:53:43;;;;;;;27.50;15.80;;;8.80;99.90;;;;;;5039959;28;20382;-68
2022/10/11 07:56:11;;;;;;;28.25;16.17;;;8.80;99.90;;;;;;5036062;28;20051;-70
2022/10/11 07:58:37;;;;;;;28.88;15.70;;;8.80;99.90;;;;;;5041133;28;20103;-69
2022/10/11 08:01:03;;;;;;;23.50;14.50;;;8.90;99.90;;;;;;5041166;28;20111;-69
2022/10/11 08:03:29;;;;;;;26.17;14.77;;;9.00;99.90;;;;;;5040893;28;20108;-68
2022/10/11 08:05:59;;;;;;;31.10;16.45;;;9.10;99.90;;;;;;5042882;28;20071;-68
2022/10/11 08:08:25;;;;;;;30.20;16.67;;;9.10;99.90;;;;;;5039436;28;20021;-69
2022/10/11 08:10:50;;;;;;;31.90;16.83;;;9.10;99.90;;;;;;5041607;28;20078;-68
2022/10/11 08:13:16;;;;;;;28.92;18.23;;;9.10;99.90;;;;;;5040563;28;20025;-69
2022/10/11 08:15:42;;;;;;;30.67;16.65;;;9.30;99.90;;;;;;5038511;28;20067;-68
2022/10/11 08:18:07;;;;;;;28.85;16.10;;;9.30;99.90;;;;;;5042144;28;20047;-69
2022/10/11 08:20:33;;;;;;;26.48;15.05;;;9.40;99.90;;;;;;5038882;28;20033;-69
2022/10/11 08:22:59;;;;;;;30.00;15.52;;;9.60;99.90;;;;;;5040039;28;20029;-69
2022/10/11 08:25:25;;;;;;;28.23;16.42;;;9.70;99.90;;;;;;5042135;28;20045;-70
2022/10/11 08:27:50;;;;;;;34.92;21.00;;;9.80;99.90;;;;;;5040497;28;20442;-70
2022/10/11 08:30:16;;;;;;;35.42;20.88;;;9.80;99.90;;;;;;5040227;28;20036;-69
2022/10/11 08:32:42;;;;;;;30.83;16.77;;;9.90;99.90;;;;;;5040757;28;20508;-69
2022/10/11 08:35:07;;;;;;;27.95;18.63;;;10.00;99.90;;;;;;5042266;28;20390;-68
2022/10/11 08:37:33;;;;;;;29.38;16.95;;;10.10;99.90;;;;;;5037525;28;20539;-68
2022/10/11 08:39:59;;;;;;;37.70;20.05;;;10.10;99.90;;;;;;5041996;28;20492;-69
2022/10/11 08:42:36;;;;;;;41.70;21.58;;;10.30;99.90;;;;;;5041318;28;20025;-69
2022/10/11 08:45:08;;;;;;;34.50;18.20;;;10.30;99.90;;;;;;5036339;28;20520;-69
2022/10/11 08:47:43;;;;;;;37.33;14.98;;;10.40;99.90;;;;;;5037399;28;20037;-68
2022/10/11 08:50:18;;;;;;;30.98;15.20;;;10.60;99.90;;;;;;5038993;28;20037;-69
2022/10/11 08:52:56;;;;;;;25.05;11.50;;;10.80;99.90;;;;;;5038744;28;20037;-68
2022/10/11 08:55:27;;;;;;;21.45;9.88;;;10.80;99.90;;;;;;5036557;28;20032;-69
2022/10/11 08:57:55;;;;;;;29.92;9.45;;;10.90;99.90;;;;;;5040240;28;20029;-71
2022/10/11 09:00:22;;;;;;;20.13;8.25;;;11.10;99.90;;;;;;5038444;28;20024;-70
2022/10/11 09:03:10;;;;;;;22.40;7.28;;;11.20;99.90;;;;;;5038711;28;20436;-69
2022/10/11 09:05:44;;;;;;;16.13;7.28;;;11.30;99.90;;;;;;5035916;28;20044;-69
2022/10/11 09:08:33;;;;;;;24.50;5.82;;;11.50;99.90;;;;;;5039469;28;20477;-71
2022/10/11 09:11:21;;;;;;;20.50;4.90;;;11.60;99.90;;;;;;5038426;28;20029;-71
2022/10/11 09:13:52;;;;;;;32.05;5.75;;;11.70;99.90;;;;;;5040155;28;20028;-69
2022/10/11 09:16:21;;;;;;;18.25;4.90;;;11.90;99.90;;;;;;5037130;28;20261;-70
2022/10/11 09:18:58;;;;;;;23.63;5.07;;;12.10;99.90;;;;;;5039180;28;20103;-70
2022/10/11 09:22:10;;;;;;;15.98;5.47;;;12.30;99.90;;;;;;5038365;28;20029;-70
2022/10/11 09:25:02;;;;;;;18.10;6.25;;;12.50;99.90;;;;;;5030374;28;20052;-68
2022/10/11 09:27:30;;;;;;;19.33;4.75;;;12.70;99.90;;;;;;5053323;28;20507;-70
2022/10/11 09:30:02;;;;;;;19.63;4.20;;;12.90;99.90;;;;;;5039977;28;20037;-71
2022/10/11 09:32:34;;;;;;;14.80;4.65;;;13.00;99.90;;;;;;5038236;28;20025;-71
2022/10/11 09:35:15;;;;;;;17.98;4.28;;;13.10;99.90;;;;;;5038206;28;20079;-68
2022/10/11 09:37:52;;;;;;;19.08;4.05;;;13.30;99.90;;;;;;5043045;28;20523;-69
2022/10/11 09:40:31;;;;;;;17.27;4.93;;;13.40;99.90;;;;;;5036622;28;20040;-71
2022/10/11 09:42:58;;;;;;;14.70;4.28;;;13.50;99.90;;;;;;5037851;28;20025;-69
2022/10/11 09:45:24;;;;;;;15.48;4.90;;;13.70;99.90;;;;;;5040989;28;20040;-68
2022/10/11 09:47:53;;;;;;;15.45;4.82;;;13.80;99.90;;;;;;5038485;28;20650;-71
2022/10/11 09:50:24;;;;;;;15.43;4.43;;;14.00;99.90;;;;;;5040537;28;20111;-70
2022/10/11 09:52:55;;;;;;;22.63;4.45;;;14.10;99.90;;;;;;5038787;28;20014;-67
2022/10/11 09:55:51;;;;;;;16.02;3.85;;;14.20;99.90;;;;;;5039432;28;20040;-70
2022/10/11 09:58:32;;;;;;;13.27;3.58;;;14.40;99.90;;;;;;5039651;28;20618;-68
2022/10/11 10:01:02;;;;;;;14.85;4.07;;;14.60;99.90;;;;;;5039193;28;20113;-68
2022/10/11 10:03:33;;;;;;;18.52;4.05;;;14.70;99.90;;;;;;5039465;28;20104;-68
2022/10/11 10:06:25;;;;;;;15.43;3.55;;;14.80;99.90;;;;;;5038493;28;20094;-69
2022/10/11 10:08:50;;;;;;;13.98;3.00;;;14.80;99.90;;;;;;5043426;28;20043;-68
2022/10/11 10:11:18;;;;;;;17.80;3.30;;;14.90;99.90;;;;;;5042995;28;20470;-68
2022/10/11 10:13:44;;;;;;;14.40;3.65;;;14.90;99.90;;;;;;5042041;28;20103;-68
2022/10/11 10:16:20;;;;;;;13.25;3.78;;;15.00;99.90;;;;;;5044209;28;20037;-68
2022/10/11 10:18:59;;;;;;;17.27;3.45;;;15.20;99.90;;;;;;5044067;28;20556;-68
2022/10/11 10:21:46;;;;;;;12.25;3.08;;;15.40;99.90;;;;;;5041044;28;20407;-68
2022/10/11 10:24:37;;;;;;;19.38;3.35;;;15.50;99.90;;;;;;5042448;28;20037;-68
2022/10/11 10:27:09;;;;;;;17.17;3.50;;;15.50;99.90;;;;;;5042141;28;20576;-68
2022/10/11 10:29:35;;;;;;;12.85;3.30;;;15.60;99.90;;;;;;5040332;28;20044;-68
2022/10/11 10:32:20;;;;;;;27.45;3.70;;;15.70;99.90;;;;;;5040912;28;20025;-68
2022/10/11 10:35:07;;;;;;;13.75;2.50;;;15.80;99.90;;;;;;5043532;28;20548;-67
2022/10/11 10:37:55;;;;;;;15.23;2.95;;;16.00;99.90;;;;;;5041225;28;20128;-67
2022/10/11 10:40:26;;;;;;;7.03;2.42;;;16.00;99.90;;;;;;5039072;28;20666;-68
2022/10/11 10:42:52;;;;;;;9.95;2.75;;;16.10;99.90;;;;;;5041649;28;20095;-68
2022/10/11 10:45:20;;;;;;;7.80;2.30;;;16.10;99.90;;;;;;5040083;28;20481;-67
2022/10/11 10:48:01;;;;;;;13.55;3.65;;;15.90;99.90;;;;;;5043578;28;20033;-68
2022/10/11 10:50:50;;;;;;;10.07;2.45;;;15.80;99.90;;;;;;5039529;28;20041;-68
2022/10/11 10:53:40;;;;;;;11.23;2.75;;;15.90;99.90;;;;;;5046643;28;20033;-67
2022/10/11 10:56:25;;;;;;;11.27;2.97;;;16.10;99.90;;;;;;5042597;28;20026;-67
2022/10/11 10:59:17;;;;;;;11.52;2.38;;;16.20;99.90;;;;;;5040660;28;20021;-68
2022/10/11 11:01:58;;;;;;;9.23;2.03;;;16.30;99.90;;;;;;5042347;28;20063;-68
2022/10/11 11:04:32;;;;;;;11.30;2.58;;;16.30;99.90;;;;;;5039283;28;20036;-67
2022/10/11 11:07:18;;;;;;;9.50;2.38;;;16.50;99.90;;;;;;5042272;28;20025;-68
2022/10/11 11:10:00;;;;;;;14.25;2.47;;;16.60;99.90;;;;;;5041931;28;21065;-68
2022/10/11 11:12:31;;;;;;;10.95;2.70;;;16.60;99.90;;;;;;5042455;28;20504;-68
2022/10/11 11:15:12;;;;;;;21.23;3.03;;;16.60;99.90;;;;;;5039369;28;20378;-67
2022/10/11 11:17:58;;;;;;;9.30;2.38;;;16.70;99.90;;;;;;5037386;28;20045;-67
2022/10/11 11:20:53;;;;;;;14.82;2.58;;;16.90;99.90;;;;;;5038299;28;20044;-68
2022/10/11 11:23:49;;;;;;;13.90;2.78;;;16.90;99.90;;;;;;5040890;28;20104;-67
2022/10/11 11:26:33;;;;;;;15.55;2.88;;;17.00;99.90;;;;;;5042866;28;20149;-68
2022/10/11 11:29:18;;;;;;;8.23;2.10;;;17.10;99.90;;;;;;5039857;28;20017;-68
2022/10/11 11:31:48;;;;;;;10.32;2.33;;;17.00;99.90;;;;;;5040952;28;20043;-68
2022/10/11 11:34:36;;;;;;;15.77;2.58;;;17.00;99.90;;;;;;5041683;28;20502;-68
2022/10/11 11:37:14;;;;;;;10.15;1.88;;;17.00;99.90;;;;;;5039228;28;20049;-69
2022/10/11 11:39:50;;;;;;;8.90;1.95;;;17.00;99.90;;;;;;5041391;28;20028;-68
2022/10/11 11:42:38;;;;;;;11.68;1.92;;;16.90;99.90;;;;;;5040023;28;20304;-68
2022/10/11 11:45:22;;;;;;;5.75;1.92;;;17.00;99.90;;;;;;5042512;28;20501;-67
2022/10/11 11:48:03;;;;;;;11.18;2.78;;;17.00;99.90;;;;;;5041398;28;20426;-67
2022/10/11 11:50:39;;;;;;;9.20;1.90;;;17.20;99.90;;;;;;5040038;28;20024;-67
2022/10/11 11:53:12;;;;;;;6.90;1.67;;;17.20;99.90;;;;;;5039311;28;20039;-70
2022/10/11 11:56:06;;;;;;;8.18;2.00;;;17.10;99.90;;;;;;5041888;28;20044;-68
2022/10/11 11:58:44;;;;;;;12.25;1.83;;;17.10;99.90;;;;;;5038778;28;20033;-69
2022/10/11 12:01:33;;;;;;;8.57;2.30;;;17.20;99.90;;;;;;5042739;28;20037;-67
2022/10/11 12:04:04;;;;;;;9.25;2.13;;;17.30;99.90;;;;;;5039951;28;20037;-68
2022/10/11 12:06:34;;;;;;;9.80;2.28;;;17.20;99.90;;;;;;5042103;28;20033;-68
2022/10/11 12:09:07;;;;;;;8.10;2.13;;;17.10;99.90;;;;;;5044579;28;20476;-68
2022/10/11 12:11:41;;;;;;;13.40;2.78;;;17.30;99.90;;;;;;5038485;28;20072;-68
2022/10/11 12:14:23;;;;;;;11.02;2.05;;;17.30;99.90;;;;;;5043140;28;20115;-68
2022/10/11 12:17:18;;;;;;;14.73;2.42;;;17.40;99.90;;;;;;5041083;28;20041;-68
2022/10/11 12:20:05;;;;;;;5.32;2.10;;;17.50;99.90;;;;;;5040175;28;20041;-67
2022/10/11 12:22:31;;;;;;;6.95;1.65;;;17.50;99.90;;;;;;5042531;28;20038;-68
2022/10/11 12:25:01;;;;;;;12.73;2.25;;;17.50;99.90;;;;;;5039048;28;20536;-67
2022/10/11 12:27:48;;;;;;;9.63;1.88;;;17.30;99.90;;;;;;5042123;28;20036;-69
2022/10/11 12:30:52;;;;;;;9.48;2.13;;;17.40;99.90;;;;;;5039874;28;20059;-68
2022/10/11 12:33:29;;;;;;;32.70;3.47;;;17.40;99.90;;;;;;5040661;28;20033;-68
2022/10/11 12:35:57;;;;;;;9.95;2.20;;;17.40;99.90;;;;;;5038545;28;20032;-68
2022/10/11 12:38:39;;;;;;;7.32;1.45;;;17.40;99.90;;;;;;5040898;28;20029;-68
2022/10/11 12:41:15;;;;;;;12.32;1.90;;;17.40;99.90;;;;;;5040419;28;20043;-68
2022/10/11 12:43:47;;;;;;;16.48;2.35;;;17.40;99.90;;;;;;5037651;28;20477;-68
2022/10/11 12:46:28;;;;;;;5.50;1.90;;;17.30;99.90;;;;;;5039556;28;20504;-68
2022/10/11 12:49:18;;;;;;;8.27;1.75;;;17.30;99.90;;;;;;5043478;28;20221;-71
2022/10/11 12:52:16;;;;;;;12.93;2.33;;;17.30;99.90;;;;;;5040163;28;20041;-68
2022/10/11 12:55:08;;;;;;;12.23;2.40;;;17.20;99.90;;;;;;5031240;28;20047;-69
2022/10/11 12:57:58;;;;;;;9.27;2.50;;;17.20;99.90;;;;;;5040556;28;20117;-69
2022/10/11 13:00:32;;;;;;;11.88;1.92;;;17.20;99.90;;;;;;5038427;28;20427;-67
2022/10/11 13:03:01;;;;;;;7.00;1.90;;;17.10;99.90;;;;;;5041016;28;20071;-68